sensor_id;sensor_type;location;lat;lon;timestamp;pressure;altitude;pressure_sealevel;temperature;humidity
73671;BME280;61968;48.178;11.566;2023-07-30T00:02:16;95451.06;;;18.02;45.95
73671;BME280;61968;48.178;11.566;2023-07-30T00:04:44;95455.56;;;17.83;46.51
73671;BME280;61968;48.178;11.566;2023-07-30T00:07:10;95455.09;;;17.76;46.88
73671;BME280;61968;48.178;11.566;2023-07-30T00:09:37;95451.56;;;17.80;46.53
73671;BME280;61968;48.178;11.566;2023-07-30T00:12:05;95459.25;;;17.87;46.71
73671;BME280;61968;48.178;11.566;2023-07-30T00:14:33;95461.34;;;17.90;46.44
73671;BME280;61968;48.178;11.566;2023-07-30T00:17:00;95462.44;;;17.89;46.56
73671;BME280;61968;48.178;11.566;2023-07-30T00:19:27;95454.72;;;17.87;46.77
73671;BME280;61968;48.178;11.566;2023-07-30T00:21:54;95457.13;;;17.84;46.72
73671;BME280;61968;48.178;11.566;2023-07-30T00:24:20;95461.41;;;17.85;47.07
73671;BME280;61968;48.178;11.566;2023-07-30T00:26:47;95446.97;;;17.86;46.88
73671;BME280;61968;48.178;11.566;2023-07-30T00:29:13;95451.75;;;17.89;46.58
73671;BME280;61968;48.178;11.566;2023-07-30T00:31:41;95453.06;;;17.91;46.72
73671;BME280;61968;48.178;11.566;2023-07-30T00:34:08;95455.56;;;17.83;46.85
73671;BME280;61968;48.178;11.566;2023-07-30T00:36:35;95456.41;;;17.78;46.99
73671;BME280;61968;48.178;11.566;2023-07-30T00:39:02;95457.78;;;17.76;46.98
73671;BME280;61968;48.178;11.566;2023-07-30T00:41:29;95465.78;;;17.76;47.06
73671;BME280;61968;48.178;11.566;2023-07-30T00:43:58;95463.38;;;17.74;47.09
73671;BME280;61968;48.178;11.566;2023-07-30T00:46:24;95463.34;;;17.79;47.19
73671;BME280;61968;48.178;11.566;2023-07-30T00:48:52;95478.69;;;17.68;47.80
73671;BME280;61968;48.178;11.566;2023-07-30T00:51:20;95479.31;;;17.60;47.79
73671;BME280;61968;48.178;11.566;2023-07-30T00:53:47;95478.81;;;17.53;47.83
73671;BME280;61968;48.178;11.566;2023-07-30T00:56:14;95480.31;;;17.64;47.82
73671;BME280;61968;48.178;11.566;2023-07-30T00:58:42;95482.78;;;17.61;48.20
73671;BME280;61968;48.178;11.566;2023-07-30T01:01:10;95482.06;;;17.50;48.15
73671;BME280;61968;48.178;11.566;2023-07-30T01:03:38;95479.25;;;17.65;47.93
73671;BME280;61968;48.178;11.566;2023-07-30T01:06:07;95478.41;;;17.70;47.48
73671;BME280;61968;48.178;11.566;2023-07-30T01:08:34;95471.28;;;17.60;47.85
73671;BME280;61968;48.178;11.566;2023-07-30T01:11:01;95460.84;;;17.59;48.02
73671;BME280;61968;48.178;11.566;2023-07-30T01:13:30;95453.69;;;17.54;48.23
73671;BME280;61968;48.178;11.566;2023-07-30T01:15:57;95454.19;;;17.56;48.09
73671;BME280;61968;48.178;11.566;2023-07-30T01:18:25;95453.63;;;17.59;47.86
73671;BME280;61968;48.178;11.566;2023-07-30T01:20:57;95452.41;;;17.47;48.46
73671;BME280;61968;48.178;11.566;2023-07-30T01:23:24;95464.69;;;17.48;48.30
73671;BME280;61968;48.178;11.566;2023-07-30T01:25:53;95460.09;;;17.53;48.55
73671;BME280;61968;48.178;11.566;2023-07-30T01:28:23;95458.28;;;17.49;48.33
73671;BME280;61968;48.178;11.566;2023-07-30T01:30:50;95457.72;;;17.52;48.27
73671;BME280;61968;48.178;11.566;2023-07-30T01:33:17;95464.44;;;17.49;48.27
73671;BME280;61968;48.178;11.566;2023-07-30T01:35:44;95465.22;;;17.50;48.26
73671;BME280;61968;48.178;11.566;2023-07-30T01:38:12;95466.88;;;17.45;48.53
73671;BME280;61968;48.178;11.566;2023-07-30T01:40:40;95473.75;;;17.52;47.88
73671;BME280;61968;48.178;11.566;2023-07-30T01:43:07;95466.53;;;17.52;48.01
73671;BME280;61968;48.178;11.566;2023-07-30T01:45:33;95463.91;;;17.47;48.20
73671;BME280;61968;48.178;11.566;2023-07-30T01:48:00;95461.28;;;17.42;48.43
73671;BME280;61968;48.178;11.566;2023-07-30T01:50:27;95467.16;;;17.39;48.32
73671;BME280;61968;48.178;11.566;2023-07-30T01:52:53;95463.41;;;17.45;48.18
73671;BME280;61968;48.178;11.566;2023-07-30T01:55:22;95459.16;;;17.39;48.33
73671;BME280;61968;48.178;11.566;2023-07-30T01:57:48;95461.56;;;17.35;48.15
73671;BME280;61968;48.178;11.566;2023-07-30T02:00:15;95462.41;;;17.31;48.64
73671;BME280;61968;48.178;11.566;2023-07-30T02:02:41;95466.16;;;17.30;48.46
73671;BME280;61968;48.178;11.566;2023-07-30T02:05:08;95468.78;;;17.35;48.09
73671;BME280;61968;48.178;11.566;2023-07-30T02:07:34;95464.22;;;17.35;48.17
73671;BME280;61968;48.178;11.566;2023-07-30T02:10:01;95453.09;;;17.28;48.19
73671;BME280;61968;48.178;11.566;2023-07-30T02:12:29;95460.31;;;17.28;48.50
73671;BME280;61968;48.178;11.566;2023-07-30T02:14:56;95453.16;;;17.18;48.75
73671;BME280;61968;48.178;11.566;2023-07-30T02:20:44;95467.34;;;17.13;48.89
73671;BME280;61968;48.178;11.566;2023-07-30T02:23:11;95467.13;;;17.05;49.12
73671;BME280;61968;48.178;11.566;2023-07-30T02:25:38;95477.31;;;17.03;49.44
73671;BME280;61968;48.178;11.566;2023-07-30T02:28:06;95467.13;;;17.10;49.84
73671;BME280;61968;48.178;11.566;2023-07-30T02:30:33;95458.25;;;17.14;49.73
73671;BME280;61968;48.178;11.566;2023-07-30T02:32:59;95460.91;;;17.19;49.67
73671;BME280;61968;48.178;11.566;2023-07-30T02:35:26;95453.91;;;17.23;49.54
73671;BME280;61968;48.178;11.566;2023-07-30T02:37:52;95460.88;;;17.25;49.49
73671;BME280;61968;48.178;11.566;2023-07-30T02:40:19;95455.22;;;17.26;49.41
73671;BME280;61968;48.178;11.566;2023-07-30T02:42:46;95470.31;;;17.12;49.97
73671;BME280;61968;48.178;11.566;2023-07-30T02:45:13;95460.44;;;17.12;50.07
73671;BME280;61968;48.178;11.566;2023-07-30T02:47:40;95464.78;;;16.98;50.86
73671;BME280;61968;48.178;11.566;2023-07-30T02:50:08;95469.66;;;16.91;51.22
73671;BME280;61968;48.178;11.566;2023-07-30T02:52:35;95476.00;;;17.00;50.93
73671;BME280;61968;48.178;11.566;2023-07-30T02:55:02;95479.81;;;16.89;51.33
73671;BME280;61968;48.178;11.566;2023-07-30T02:57:28;95484.84;;;16.90;51.55
73671;BME280;61968;48.178;11.566;2023-07-30T02:59:55;95490.47;;;16.94;51.19
73671;BME280;61968;48.178;11.566;2023-07-30T03:02:23;95503.53;;;16.90;51.57
73671;BME280;61968;48.178;11.566;2023-07-30T03:04:50;95502.34;;;16.72;52.14
73671;BME280;61968;48.178;11.566;2023-07-30T03:07:17;95507.91;;;16.76;51.79
73671;BME280;61968;48.178;11.566;2023-07-30T03:09:43;95493.50;;;16.72;52.07
73671;BME280;61968;48.178;11.566;2023-07-30T03:12:10;95506.34;;;16.70;51.94
73671;BME280;61968;48.178;11.566;2023-07-30T03:14:36;95509.84;;;16.60;52.45
73671;BME280;61968;48.178;11.566;2023-07-30T03:17:03;95518.66;;;16.50;52.83
73671;BME280;61968;48.178;11.566;2023-07-30T03:19:32;95506.47;;;16.29;53.25
73671;BME280;61968;48.178;11.566;2023-07-30T03:21:58;95500.59;;;16.32;53.58
73671;BME280;61968;48.178;11.566;2023-07-30T03:24:25;95492.22;;;16.59;52.75
73671;BME280;61968;48.178;11.566;2023-07-30T03:26:51;95490.03;;;16.71;52.40
73671;BME280;61968;48.178;11.566;2023-07-30T03:29:20;95504.94;;;16.83;51.95
73671;BME280;61968;48.178;11.566;2023-07-30T03:31:47;95497.25;;;16.76;52.21
73671;BME280;61968;48.178;11.566;2023-07-30T03:34:13;95495.63;;;16.75;52.33
73671;BME280;61968;48.178;11.566;2023-07-30T03:36:41;95497.78;;;16.68;52.50
73671;BME280;61968;48.178;11.566;2023-07-30T03:39:08;95502.31;;;16.67;52.30
73671;BME280;61968;48.178;11.566;2023-07-30T03:41:35;95499.13;;;16.75;52.11
73671;BME280;61968;48.178;11.566;2023-07-30T03:44:02;95498.56;;;16.79;52.02
73671;BME280;61968;48.178;11.566;2023-07-30T03:46:29;95504.09;;;16.87;51.65
73671;BME280;61968;48.178;11.566;2023-07-30T03:48:55;95503.28;;;16.92;51.75
73671;BME280;61968;48.178;11.566;2023-07-30T03:51:22;95502.72;;;16.95;51.70
73671;BME280;61968;48.178;11.566;2023-07-30T03:53:51;95500.09;;;16.90;51.49
73671;BME280;61968;48.178;11.566;2023-07-30T03:56:17;95504.88;;;16.93;51.87
73671;BME280;61968;48.178;11.566;2023-07-30T03:58:43;95508.38;;;16.93;51.82
73671;BME280;61968;48.178;11.566;2023-07-30T04:01:09;95507.81;;;16.96;51.20
73671;BME280;61968;48.178;11.566;2023-07-30T04:03:36;95510.22;;;16.93;51.73
73671;BME280;61968;48.178;11.566;2023-07-30T04:06:03;95509.41;;;16.97;51.57
73671;BME280;61968;48.178;11.566;2023-07-30T04:08:29;95507.53;;;16.93;52.10
73671;BME280;61968;48.178;11.566;2023-07-30T04:10:58;95507.31;;;16.89;52.07
73671;BME280;61968;48.178;11.566;2023-07-30T04:13:24;95510.75;;;16.90;51.89
73671;BME280;61968;48.178;11.566;2023-07-30T04:15:51;95508.38;;;16.88;52.18
73671;BME280;61968;48.178;11.566;2023-07-30T04:18:17;95511.56;;;16.90;51.81
73671;BME280;61968;48.178;11.566;2023-07-30T04:20:45;95509.72;;;16.86;52.18
73671;BME280;61968;48.178;11.566;2023-07-30T04:23:11;95507.59;;;16.88;52.08
73671;BME280;61968;48.178;11.566;2023-07-30T04:25:38;95504.88;;;16.93;51.74
73671;BME280;61968;48.178;11.566;2023-07-30T04:28:06;95507.28;;;16.94;51.81
73671;BME280;61968;48.178;11.566;2023-07-30T04:30:32;95511.03;;;16.93;52.18
73671;BME280;61968;48.178;11.566;2023-07-30T04:32:59;95512.06;;;16.97;51.69
73671;BME280;61968;48.178;11.566;2023-07-30T04:35:25;95518.22;;;16.93;52.11
73671;BME280;61968;48.178;11.566;2023-07-30T04:37:52;95523.31;;;16.89;51.76
73671;BME280;61968;48.178;11.566;2023-07-30T04:40:19;95537.19;;;16.96;51.71
73671;BME280;61968;48.178;11.566;2023-07-30T04:42:45;95534.25;;;16.93;51.73
73671;BME280;61968;48.178;11.566;2023-07-30T04:45:13;95538.03;;;16.87;51.93
73671;BME280;61968;48.178;11.566;2023-07-30T04:47:41;95536.13;;;16.87;51.93
73671;BME280;61968;48.178;11.566;2023-07-30T04:50:08;95535.94;;;16.79;52.21
73671;BME280;61968;48.178;11.566;2023-07-30T04:52:34;95531.63;;;16.83;51.81
73671;BME280;61968;48.178;11.566;2023-07-30T04:55:03;95540.44;;;16.88;51.88
73671;BME280;61968;48.178;11.566;2023-07-30T04:57:30;95544.75;;;16.79;52.08
73671;BME280;61968;48.178;11.566;2023-07-30T04:59:56;95553.56;;;16.80;51.75
73671;BME280;61968;48.178;11.566;2023-07-30T05:02:24;95550.81;;;16.90;51.33
73671;BME280;61968;48.178;11.566;2023-07-30T05:04:51;95553.78;;;16.83;51.77
73671;BME280;61968;48.178;11.566;2023-07-30T05:07:17;95561.56;;;16.74;51.78
73671;BME280;61968;48.178;11.566;2023-07-30T05:09:44;95556.75;;;16.82;51.42
73671;BME280;61968;48.178;11.566;2023-07-30T05:12:11;95557.91;;;16.55;52.43
73671;BME280;61968;48.178;11.566;2023-07-30T05:14:37;95556.81;;;16.61;52.26
73671;BME280;61968;48.178;11.566;2023-07-30T05:17:04;95562.09;;;16.76;52.02
73671;BME280;61968;48.178;11.566;2023-07-30T05:19:32;95566.09;;;16.69;51.75
73671;BME280;61968;48.178;11.566;2023-07-30T05:21:59;95560.75;;;16.79;51.48
73671;BME280;61968;48.178;11.566;2023-07-30T05:24:27;95555.13;;;16.81;51.69
73671;BME280;61968;48.178;11.566;2023-07-30T05:26:53;95550.03;;;16.84;51.19
73671;BME280;61968;48.178;11.566;2023-07-30T05:29:20;95563.13;;;16.91;51.03
73671;BME280;61968;48.178;11.566;2023-07-30T05:31:47;95570.03;;;16.97;50.82
73671;BME280;61968;48.178;11.566;2023-07-30T05:34:13;95575.63;;;16.95;51.30
73671;BME280;61968;48.178;11.566;2023-07-30T05:36:41;95576.09;;;17.08;50.61
73671;BME280;61968;48.178;11.566;2023-07-30T05:39:08;95578.50;;;17.09;50.58
73671;BME280;61968;48.178;11.566;2023-07-30T05:41:34;95586.25;;;17.11;50.80
73671;BME280;61968;48.178;11.566;2023-07-30T05:44:01;95577.66;;;17.19;50.44
73671;BME280;61968;48.178;11.566;2023-07-30T05:46:28;95574.22;;;17.08;50.37
73671;BME280;61968;48.178;11.566;2023-07-30T05:48:54;95572.88;;;17.16;50.25
73671;BME280;61968;48.178;11.566;2023-07-30T05:51:21;95575.44;;;17.31;50.13
73671;BME280;61968;48.178;11.566;2023-07-30T05:53:49;95578.44;;;17.19;50.78
73671;BME280;61968;48.178;11.566;2023-07-30T05:56:15;95575.75;;;17.25;50.52
73671;BME280;61968;48.178;11.566;2023-07-30T05:58:43;95572.00;;;17.20;50.06
73671;BME280;61968;48.178;11.566;2023-07-30T06:01:10;95573.88;;;17.25;50.13
73671;BME280;61968;48.178;11.566;2023-07-30T06:03:37;95573.88;;;17.25;49.61
73671;BME280;61968;48.178;11.566;2023-07-30T06:06:04;95569.53;;;17.34;49.78
73671;BME280;61968;48.178;11.566;2023-07-30T06:08:32;95573.25;;;17.38;49.34
73671;BME280;61968;48.178;11.566;2023-07-30T06:11:02;95579.91;;;17.41;49.15
73671;BME280;61968;48.178;11.566;2023-07-30T06:13:28;95573.53;;;17.42;49.29
73671;BME280;61968;48.178;11.566;2023-07-30T06:15:55;95582.81;;;17.55;49.10
73671;BME280;61968;48.178;11.566;2023-07-30T06:18:22;95580.41;;;17.53;48.88
73671;BME280;61968;48.178;11.566;2023-07-30T06:20:48;95580.94;;;17.50;48.77
73671;BME280;61968;48.178;11.566;2023-07-30T06:23:15;95580.44;;;17.48;49.03
73671;BME280;61968;48.178;11.566;2023-07-30T06:25:42;95573.34;;;17.23;49.48
73671;BME280;61968;48.178;11.566;2023-07-30T06:28:10;95574.34;;;17.42;49.05
73671;BME280;61968;48.178;11.566;2023-07-30T06:30:36;95575.91;;;17.49;49.02
73671;BME280;61968;48.178;11.566;2023-07-30T06:33:04;95581.56;;;17.42;48.64
73671;BME280;61968;48.178;11.566;2023-07-30T06:35:31;95577.66;;;17.63;48.23
73671;BME280;61968;48.178;11.566;2023-07-30T06:37:57;95576.03;;;17.62;48.55
73671;BME280;61968;48.178;11.566;2023-07-30T06:40:24;95576.00;;;17.73;48.43
73671;BME280;61968;48.178;11.566;2023-07-30T06:42:50;95581.59;;;17.71;48.44
73671;BME280;61968;48.178;11.566;2023-07-30T06:45:20;95580.72;;;17.81;48.57
73671;BME280;61968;48.178;11.566;2023-07-30T06:47:46;95581.00;;;17.79;48.15
73671;BME280;61968;48.178;11.566;2023-07-30T06:50:13;95580.09;;;17.94;47.73
73671;BME280;61968;48.178;11.566;2023-07-30T06:52:39;95592.41;;;17.90;47.96
73671;BME280;61968;48.178;11.566;2023-07-30T06:55:07;95585.13;;;17.96;47.76
73671;BME280;61968;48.178;11.566;2023-07-30T06:57:33;95589.38;;;17.67;47.73
73671;BME280;61968;48.178;11.566;2023-07-30T07:00:00;95581.59;;;17.71;47.40
73671;BME280;61968;48.178;11.566;2023-07-30T07:02:28;95583.47;;;17.71;47.86
73671;BME280;61968;48.178;11.566;2023-07-30T07:04:54;95586.28;;;17.50;48.15
73671;BME280;61968;48.178;11.566;2023-07-30T07:07:21;95591.03;;;17.63;47.61
73671;BME280;61968;48.178;11.566;2023-07-30T07:09:48;95588.19;;;17.44;47.96
73671;BME280;61968;48.178;11.566;2023-07-30T07:12:14;95583.56;;;17.60;47.55
73671;BME280;61968;48.178;11.566;2023-07-30T07:14:41;95585.81;;;17.43;48.24
73671;BME280;61968;48.178;11.566;2023-07-30T07:17:08;95591.38;;;17.86;47.57
73671;BME280;61968;48.178;11.566;2023-07-30T07:19:36;95579.59;;;17.87;47.41
73671;BME280;61968;48.178;11.566;2023-07-30T07:22:03;95581.66;;;17.95;47.18
73671;BME280;61968;48.178;11.566;2023-07-30T07:24:30;95596.00;;;18.15;46.86
73671;BME280;61968;48.178;11.566;2023-07-30T07:26:58;95596.81;;;18.05;46.75
73671;BME280;61968;48.178;11.566;2023-07-30T07:29:25;95598.13;;;18.12;46.24
73671;BME280;61968;48.178;11.566;2023-07-30T07:31:51;95606.22;;;18.02;46.50
73671;BME280;61968;48.178;11.566;2023-07-30T07:34:18;95598.25;;;18.26;45.39
73671;BME280;61968;48.178;11.566;2023-07-30T07:36:46;95607.75;;;18.43;45.66
73671;BME280;61968;48.178;11.566;2023-07-30T07:39:13;95595.59;;;18.26;45.39
73671;BME280;61968;48.178;11.566;2023-07-30T07:41:39;95598.41;;;18.40;45.31
73671;BME280;61968;48.178;11.566;2023-07-30T07:44:06;95597.78;;;18.48;45.15
73671;BME280;61968;48.178;11.566;2023-07-30T07:46:32;95606.69;;;18.09;46.33
73671;BME280;61968;48.178;11.566;2023-07-30T07:48:59;95597.34;;;18.07;46.22
73671;BME280;61968;48.178;11.566;2023-07-30T07:51:26;95612.13;;;18.33;45.95
73671;BME280;61968;48.178;11.566;2023-07-30T07:53:53;95603.34;;;18.28;45.90
73671;BME280;61968;48.178;11.566;2023-07-30T07:56:20;95599.94;;;18.46;45.70
73671;BME280;61968;48.178;11.566;2023-07-30T07:58:47;95596.53;;;18.65;45.13
73671;BME280;61968;48.178;11.566;2023-07-30T08:01:13;95601.22;;;18.54;45.04
73671;BME280;61968;48.178;11.566;2023-07-30T08:03:40;95609.41;;;18.63;44.76
73671;BME280;61968;48.178;11.566;2023-07-30T08:06:07;95616.28;;;18.69;43.46
73671;BME280;61968;48.178;11.566;2023-07-30T08:08:33;95599.31;;;18.30;44.66
73671;BME280;61968;48.178;11.566;2023-07-30T08:11:06;95615.50;;;18.44;44.85
73671;BME280;61968;48.178;11.566;2023-07-30T08:13:33;95606.84;;;18.76;44.33
73671;BME280;61968;48.178;11.566;2023-07-30T08:16:00;95605.56;;;18.98;43.83
73671;BME280;61968;48.178;11.566;2023-07-30T08:18:27;95603.47;;;19.14;43.34
73671;BME280;61968;48.178;11.566;2023-07-30T08:20:54;95603.59;;;19.03;43.08
73671;BME280;61968;48.178;11.566;2023-07-30T08:23:20;95600.00;;;19.13;42.78
73671;BME280;61968;48.178;11.566;2023-07-30T08:25:47;95596.41;;;18.99;42.15
73671;BME280;61968;48.178;11.566;2023-07-30T08:28:16;95607.13;;;18.75;42.74
73671;BME280;61968;48.178;11.566;2023-07-30T08:30:43;95608.38;;;18.58;42.41
73671;BME280;61968;48.178;11.566;2023-07-30T08:33:09;95604.38;;;18.56;42.47
73671;BME280;61968;48.178;11.566;2023-07-30T08:35:36;95604.44;;;18.75;42.81
73671;BME280;61968;48.178;11.566;2023-07-30T08:38:02;95592.53;;;18.62;43.03
73671;BME280;61968;48.178;11.566;2023-07-30T08:40:29;95591.63;;;18.72;42.97
73671;BME280;61968;48.178;11.566;2023-07-30T08:42:56;95593.03;;;18.93;42.67
73671;BME280;61968;48.178;11.566;2023-07-30T08:45:24;95594.19;;;18.87;42.53
73671;BME280;61968;48.178;11.566;2023-07-30T08:47:50;95584.84;;;19.03;41.52
73671;BME280;61968;48.178;11.566;2023-07-30T08:50:17;95588.31;;;18.80;41.36
73671;BME280;61968;48.178;11.566;2023-07-30T08:52:44;95585.63;;;18.80;41.10
73671;BME280;61968;48.178;11.566;2023-07-30T08:55:12;95596.16;;;19.00;40.91
73671;BME280;61968;48.178;11.566;2023-07-30T08:57:40;95602.41;;;19.15;40.73
73671;BME280;61968;48.178;11.566;2023-07-30T09:00:09;95590.19;;;18.85;41.83
73671;BME280;61968;48.178;11.566;2023-07-30T09:02:43;95579.75;;;18.83;41.25
73671;BME280;61968;48.178;11.566;2023-07-30T09:05:11;95581.84;;;18.86;41.50
73671;BME280;61968;48.178;11.566;2023-07-30T09:07:37;95580.44;;;19.13;40.51
73671;BME280;61968;48.178;11.566;2023-07-30T09:10:05;95578.56;;;19.13;40.85
73671;BME280;61968;48.178;11.566;2023-07-30T09:12:33;95560.38;;;19.10;40.64
73671;BME280;61968;48.178;11.566;2023-07-30T09:15:01;95563.03;;;18.67;41.18
73671;BME280;61968;48.178;11.566;2023-07-30T09:17:30;95566.47;;;19.16;40.56
73671;BME280;61968;48.178;11.566;2023-07-30T09:20:03;95563.66;;;18.83;40.19
73671;BME280;61968;48.178;11.566;2023-07-30T09:22:31;95561.00;;;19.02;39.78
73671;BME280;61968;48.178;11.566;2023-07-30T09:25:01;95557.31;;;18.98;40.26
73671;BME280;61968;48.178;11.566;2023-07-30T09:27:29;95552.91;;;19.26;39.96
73671;BME280;61968;48.178;11.566;2023-07-30T09:29:56;95553.50;;;19.61;39.60
73671;BME280;61968;48.178;11.566;2023-07-30T09:32:25;95555.72;;;19.72;39.10
73671;BME280;61968;48.178;11.566;2023-07-30T09:34:52;95552.53;;;19.70;38.88
73671;BME280;61968;48.178;11.566;2023-07-30T09:37:21;95550.78;;;19.80;37.91
73671;BME280;61968;48.178;11.566;2023-07-30T09:39:48;95554.88;;;19.58;38.53
73671;BME280;61968;48.178;11.566;2023-07-30T09:42:14;95554.69;;;19.55;38.38
73671;BME280;61968;48.178;11.566;2023-07-30T09:44:41;95551.56;;;19.80;38.53
73671;BME280;61968;48.178;11.566;2023-07-30T09:47:09;95544.25;;;19.86;37.63
73671;BME280;61968;48.178;11.566;2023-07-30T09:49:38;95543.25;;;19.95;37.47
73671;BME280;61968;48.178;11.566;2023-07-30T09:52:05;95543.44;;;19.85;36.93
73671;BME280;61968;48.178;11.566;2023-07-30T09:54:33;95542.91;;;20.02;37.33
73671;BME280;61968;48.178;11.566;2023-07-30T09:57:03;95552.94;;;19.78;36.65
73671;BME280;61968;48.178;11.566;2023-07-30T09:59:30;95551.47;;;19.53;36.24
73671;BME280;61968;48.178;11.566;2023-07-30T10:01:57;95546.91;;;19.53;36.23
73671;BME280;61968;48.178;11.566;2023-07-30T10:04:27;95560.13;;;19.82;36.55
73671;BME280;61968;48.178;11.566;2023-07-30T10:06:59;95548.72;;;19.58;36.97
73671;BME280;61968;48.178;11.566;2023-07-30T10:09:30;95556.84;;;19.53;37.67
73671;BME280;61968;48.178;11.566;2023-07-30T10:12:00;95556.69;;;19.63;38.11
73671;BME280;61968;48.178;11.566;2023-07-30T10:14:29;95554.84;;;19.77;37.74
73671;BME280;61968;48.178;11.566;2023-07-30T10:16:59;95561.31;;;19.90;37.98
73671;BME280;61968;48.178;11.566;2023-07-30T10:19:27;95557.56;;;19.91;37.76
73671;BME280;61968;48.178;11.566;2023-07-30T10:21:58;95559.78;;;20.03;37.34
73671;BME280;61968;48.178;11.566;2023-07-30T10:24:26;95563.28;;;19.70;38.01
73671;BME280;61968;48.178;11.566;2023-07-30T10:26:54;95562.91;;;19.39;38.71
73671;BME280;61968;48.178;11.566;2023-07-30T10:29:24;95560.97;;;19.45;38.57
73671;BME280;61968;48.178;11.566;2023-07-30T10:31:53;95567.97;;;19.41;38.85
73671;BME280;61968;48.178;11.566;2023-07-30T10:34:22;95563.06;;;19.67;38.35
73671;BME280;61968;48.178;11.566;2023-07-30T10:36:52;95562.59;;;19.79;38.47
73671;BME280;61968;48.178;11.566;2023-07-30T10:39:26;95561.28;;;20.09;38.23
73671;BME280;61968;48.178;11.566;2023-07-30T10:41:55;95559.28;;;20.33;37.64
73671;BME280;61968;48.178;11.566;2023-07-30T10:44:26;95572.19;;;20.17;37.84
73671;BME280;61968;48.178;11.566;2023-07-30T10:46:53;95564.81;;;20.23;37.55
73671;BME280;61968;48.178;11.566;2023-07-30T10:49:20;95551.72;;;20.35;37.10
73671;BME280;61968;48.178;11.566;2023-07-30T10:51:47;95552.69;;;20.26;36.77
73671;BME280;61968;48.178;11.566;2023-07-30T10:54:14;95543.56;;;20.27;37.14
73671;BME280;61968;48.178;11.566;2023-07-30T10:56:41;95543.66;;;20.35;37.41
73671;BME280;61968;48.178;11.566;2023-07-30T10:59:10;95548.53;;;20.33;36.45
73671;BME280;61968;48.178;11.566;2023-07-30T11:01:39;95562.16;;;20.37;36.83
73671;BME280;61968;48.178;11.566;2023-07-30T11:04:08;95556.78;;;20.37;36.95
73671;BME280;61968;48.178;11.566;2023-07-30T11:06:35;95560.88;;;20.48;36.99
73671;BME280;61968;48.178;11.566;2023-07-30T11:09:02;95545.94;;;20.56;37.41
73671;BME280;61968;48.178;11.566;2023-07-30T11:11:28;95548.22;;;20.76;36.98
73671;BME280;61968;48.178;11.566;2023-07-30T11:13:56;95553.31;;;20.92;36.43
73671;BME280;61968;48.178;11.566;2023-07-30T11:16:24;95549.84;;;20.91;35.20
73671;BME280;61968;48.178;11.566;2023-07-30T11:18:51;95541.66;;;20.27;35.47
73671;BME280;61968;48.178;11.566;2023-07-30T11:21:18;95544.16;;;20.37;35.28
73671;BME280;61968;48.178;11.566;2023-07-30T11:23:45;95543.38;;;20.51;34.01
73671;BME280;61968;48.178;11.566;2023-07-30T11:26:14;95547.16;;;20.03;35.31
73671;BME280;61968;48.178;11.566;2023-07-30T11:28:42;95552.44;;;20.08;35.08
73671;BME280;61968;48.178;11.566;2023-07-30T11:31:10;95563.13;;;20.41;34.94
73671;BME280;61968;48.178;11.566;2023-07-30T11:33:40;95560.28;;;20.51;35.63
73671;BME280;61968;48.178;11.566;2023-07-30T11:36:12;95555.19;;;20.50;36.90
73671;BME280;61968;48.178;11.566;2023-07-30T11:38:41;95558.88;;;20.40;36.13
73671;BME280;61968;48.178;11.566;2023-07-30T11:41:10;95557.47;;;20.15;37.47
73671;BME280;61968;48.178;11.566;2023-07-30T11:43:47;95570.53;;;19.70;39.77
73671;BME280;61968;48.178;11.566;2023-07-30T11:46:14;95591.69;;;19.34;40.58
73671;BME280;61968;48.178;11.566;2023-07-30T11:48:43;95617.75;;;19.09;41.05
73671;BME280;61968;48.178;11.566;2023-07-30T11:51:25;95595.09;;;19.58;39.83
73671;BME280;61968;48.178;11.566;2023-07-30T11:53:53;95593.44;;;19.62;39.84
73671;BME280;61968;48.178;11.566;2023-07-30T11:56:22;95599.34;;;19.40;39.14
73671;BME280;61968;48.178;11.566;2023-07-30T11:58:51;95592.56;;;19.67;38.42
73671;BME280;61968;48.178;11.566;2023-07-30T12:01:18;95591.72;;;19.47;38.33
73671;BME280;61968;48.178;11.566;2023-07-30T12:03:45;95595.41;;;19.57;37.54
73671;BME280;61968;48.178;11.566;2023-07-30T12:06:12;95590.28;;;19.74;38.13
73671;BME280;61968;48.178;11.566;2023-07-30T12:08:40;95598.19;;;19.46;38.39
73671;BME280;61968;48.178;11.566;2023-07-30T12:11:09;95610.88;;;19.41;38.91
73671;BME280;61968;48.178;11.566;2023-07-30T12:13:43;95595.06;;;19.96;38.39
73671;BME280;61968;48.178;11.566;2023-07-30T12:16:11;95594.94;;;19.87;38.00
73671;BME280;61968;48.178;11.566;2023-07-30T12:18:38;95602.72;;;20.03;37.85
73671;BME280;61968;48.178;11.566;2023-07-30T12:21:06;95611.06;;;20.01;38.53
73671;BME280;61968;48.178;11.566;2023-07-30T12:23:36;95603.72;;;20.07;38.74
73671;BME280;61968;48.178;11.566;2023-07-30T12:26:04;95604.31;;;20.36;38.59
73671;BME280;61968;48.178;11.566;2023-07-30T12:28:31;95608.69;;;20.00;39.54
73671;BME280;61968;48.178;11.566;2023-07-30T12:30:59;95608.19;;;19.98;40.62
73671;BME280;61968;48.178;11.566;2023-07-30T12:33:26;95622.41;;;20.31;39.49
73671;BME280;61968;48.178;11.566;2023-07-30T12:35:53;95611.69;;;20.12;40.00
73671;BME280;61968;48.178;11.566;2023-07-30T12:38:19;95617.16;;;20.07;40.14
73671;BME280;61968;48.178;11.566;2023-07-30T12:40:47;95614.72;;;19.91;40.56
73671;BME280;61968;48.178;11.566;2023-07-30T12:43:16;95610.31;;;19.82;40.84
73671;BME280;61968;48.178;11.566;2023-07-30T12:45:45;95613.94;;;20.05;40.59
73671;BME280;61968;48.178;11.566;2023-07-30T12:48:12;95609.03;;;20.45;40.50
73671;BME280;61968;48.178;11.566;2023-07-30T12:50:40;95604.00;;;20.38;40.60
73671;BME280;61968;48.178;11.566;2023-07-30T12:53:07;95603.06;;;20.75;39.98
73671;BME280;61968;48.178;11.566;2023-07-30T12:55:34;95608.94;;;20.63;39.78